Time;durP1;ratioP1;P1;durP2;ratioP2;P2;SDS_P1;SDS_P2;PMS_P1;PMS_P2;Temp;Humidity;BMP_temperature;BMP_pressure;BME280_temperature;BME280_humidity;BME280_pressure;Samples;Min_cycle;Max_cycle;Signal;HPM_P1;HPM_P2
2021/12/10 00:01:22;;;;;;;11.37;6.40;;;4.60;99.90;;;;;;5054348;28;20200;-60
2021/12/10 00:03:54;;;;;;;17.30;6.43;;;4.60;99.90;;;;;;5052507;28;20210;-60
2021/12/10 00:06:36;;;;;;;15.90;6.07;;;4.60;99.90;;;;;;5054188;28;20186;-60
2021/12/10 00:09:19;;;;;;;13.20;5.90;;;4.60;99.90;;;;;;5054982;28;20166;-60
2021/12/10 00:11:49;;;;;;;10.70;5.20;;;4.60;99.90;;;;;;5053985;28;20541;-60
2021/12/10 00:14:15;;;;;;;12.73;5.87;;;4.50;99.90;;;;;;5054914;28;20225;-60
2021/12/10 00:16:43;;;;;;;11.73;5.43;;;4.60;99.90;;;;;;5054537;28;20221;-60
2021/12/10 00:21:47;;;;;;;11.10;5.50;;;4.60;99.90;;;;;;5053552;28;20252;-60
2021/12/10 00:24:13;;;;;;;12.83;5.53;;;4.60;99.90;;;;;;5053638;28;20580;-60
2021/12/10 00:26:40;;;;;;;13.03;5.57;;;4.70;99.90;;;;;;5053321;28;20257;-60
2021/12/10 00:29:07;;;;;;;12.40;5.47;;;4.70;99.90;;;;;;5054713;28;20271;-60
2021/12/10 00:34:08;;;;;;;12.03;5.00;;;4.70;99.90;;;;;;5055090;28;20175;-60
2021/12/10 00:36:36;;;;;;;14.20;5.23;;;4.70;99.90;;;;;;5054034;28;20175;-60
2021/12/10 00:39:05;;;;;;;11.97;5.33;;;4.70;99.90;;;;;;5054923;28;20177;-60
2021/12/10 00:41:32;;;;;;;14.00;5.80;;;4.70;99.90;;;;;;5053881;28;20606;-60
2021/12/10 00:43:58;;;;;;;10.00;5.20;;;4.80;99.90;;;;;;5053317;28;20540;-60
2021/12/10 00:46:23;;;;;;;10.38;5.47;;;4.80;99.90;;;;;;5054172;28;20183;-60
2021/12/10 00:48:49;;;;;;;13.25;5.95;;;4.80;99.90;;;;;;5053250;28;20187;-60
2021/12/10 00:51:15;;;;;;;18.03;5.00;;;4.80;99.90;;;;;;5053690;28;20186;-60
2021/12/10 00:53:42;;;;;;;7.83;4.87;;;4.90;99.90;;;;;;5054347;28;20260;-60
2021/12/10 00:56:08;;;;;;;10.67;4.83;;;5.00;99.90;;;;;;5052634;28;20178;-60
2021/12/10 00:58:35;;;;;;;12.10;5.18;;;5.00;99.90;;;;;;5053079;28;20202;-60
2021/12/10 01:01:07;;;;;;;12.57;5.57;;;5.10;99.90;;;;;;5053549;28;20206;-60
2021/12/10 01:03:38;;;;;;;10.90;5.00;;;5.10;99.90;;;;;;5054484;28;20174;-60
2021/12/10 01:06:07;;;;;;;10.50;4.60;;;5.10;99.90;;;;;;5053525;28;20216;-60
2021/12/10 01:08:35;;;;;;;11.83;4.83;;;5.10;99.90;;;;;;5054352;28;20177;-60
2021/12/10 01:11:11;;;;;;;8.27;4.83;;;5.20;99.90;;;;;;5051936;28;20849;-60
2021/12/10 01:13:40;;;;;;;13.43;4.60;;;5.30;99.90;;;;;;5054313;28;20213;-60
2021/12/10 01:27:25;;;;;;;8.30;3.43;;;5.30;99.90;;;;;;5052460;28;20166;-60
2021/12/10 01:29:56;;;;;;;6.30;3.80;;;5.30;99.90;;;;;;5053963;28;20162;-60
2021/12/10 01:32:23;;;;;;;8.60;3.80;;;5.30;99.90;;;;;;5051966;28;20642;-60
2021/12/10 01:34:49;;;;;;;6.43;4.07;;;5.30;99.90;;;;;;5053574;28;20182;-60
2021/12/10 01:37:15;;;;;;;6.87;3.60;;;5.40;99.90;;;;;;5035672;28;20205;-60
2021/12/10 01:39:42;;;;;;;6.33;3.57;;;5.40;99.90;;;;;;5053316;28;20627;-60
2021/12/10 01:42:16;;;;;;;7.17;3.57;;;5.40;99.90;;;;;;5052753;28;20293;-60
2021/12/10 01:44:50;;;;;;;9.20;4.07;;;5.50;99.90;;;;;;5052410;28;20674;-60
2021/12/10 01:47:19;;;;;;;8.40;3.37;;;5.50;99.90;;;;;;5051838;28;20220;-60
2021/12/10 01:49:45;;;;;;;10.65;3.85;;;5.50;99.90;;;;;;5052206;28;20177;-60
2021/12/10 01:52:15;;;;;;;5.43;3.03;;;5.50;99.90;;;;;;5051834;28;20655;-60
2021/12/10 01:54:47;;;;;;;9.20;3.63;;;5.50;99.90;;;;;;5053588;28;20174;-60
2021/12/10 01:57:14;;;;;;;6.90;3.30;;;5.50;99.90;;;;;;5052992;28;20654;-60
2021/12/10 01:59:42;;;;;;;6.47;3.28;;;5.50;99.90;;;;;;5052348;28;20191;-60
2021/12/10 02:02:17;;;;;;;6.82;3.33;;;5.50;99.90;;;;;;5052647;28;20248;-60
2021/12/10 02:04:45;;;;;;;8.50;3.47;;;5.60;99.90;;;;;;5053542;28;20253;-60
2021/12/10 02:07:15;;;;;;;6.30;3.30;;;5.60;99.90;;;;;;5052553;28;20182;-60
2021/12/10 02:09:41;;;;;;;6.10;3.20;;;5.60;99.90;;;;;;5053169;28;20628;-60
2021/12/10 02:12:07;;;;;;;4.97;2.73;;;5.60;99.90;;;;;;5052303;28;20189;-60
2021/12/10 02:14:33;;;;;;;8.07;3.10;;;5.60;99.90;;;;;;5053418;28;20178;-60
2021/12/10 02:17:00;;;;;;;6.70;3.30;;;5.50;99.90;;;;;;5052784;28;20194;-60
2021/12/10 02:19:27;;;;;;;4.93;2.70;;;5.50;99.90;;;;;;5053026;28;20218;-60
2021/12/10 02:21:53;;;;;;;7.77;2.87;;;5.60;99.90;;;;;;5052484;28;20210;-60
2021/12/10 02:24:19;;;;;;;6.70;2.75;;;5.60;99.90;;;;;;5053001;28;20182;-60
2021/12/10 02:26:54;;;;;;;5.75;2.55;;;5.60;99.90;;;;;;5052579;28;20175;-60
2021/12/10 02:29:23;;;;;;;9.13;2.92;;;5.60;99.90;;;;;;5053072;28;20723;-59
2021/12/10 02:31:50;;;;;;;5.05;2.63;;;5.60;99.90;;;;;;5052465;28;20189;-61
2021/12/10 02:34:15;;;;;;;4.33;2.27;;;5.60;99.90;;;;;;5051891;28;20300;-60
2021/12/10 02:36:42;;;;;;;4.50;2.00;;;5.70;99.90;;;;;;5052280;28;20265;-60
2021/12/10 02:39:14;;;;;;;5.87;2.27;;;5.70;99.90;;;;;;5051660;28;20178;-60
2021/12/10 02:41:40;;;;;;;6.57;2.30;;;5.70;99.90;;;;;;5051717;28;20234;-60
2021/12/10 02:44:12;;;;;;;5.30;1.95;;;5.70;99.90;;;;;;5053169;28;20575;-60
2021/12/10 02:46:38;;;;;;;3.80;1.90;;;5.70;99.90;;;;;;5052163;28;20241;-60
2021/12/10 02:49:07;;;;;;;6.47;2.33;;;5.70;99.90;;;;;;5051584;28;20715;-60
2021/12/10 02:51:35;;;;;;;4.37;1.60;;;5.80;99.90;;;;;;5052447;28;20171;-60
2021/12/10 02:54:03;;;;;;;3.33;1.60;;;5.70;99.90;;;;;;5053878;28;20232;-60
2021/12/10 02:56:29;;;;;;;3.63;1.70;;;5.60;99.90;;;;;;5054587;28;20697;-60
2021/12/10 02:58:59;;;;;;;5.03;1.70;;;5.60;99.90;;;;;;5056808;28;20262;-60
2021/12/10 03:01:35;;;;;;;4.50;1.77;;;5.70;99.90;;;;;;5056032;28;20210;-60
2021/12/10 03:04:01;;;;;;;5.37;2.23;;;5.60;99.90;;;;;;5055313;28;20575;-60
2021/12/10 03:06:30;;;;;;;2.60;1.40;;;5.70;99.90;;;;;;5054797;28;20175;-60
2021/12/10 03:08:57;;;;;;;3.37;1.53;;;5.60;99.90;;;;;;5056351;28;20167;-60
2021/12/10 03:11:28;;;;;;;2.60;1.30;;;5.70;99.90;;;;;;5055985;28;20528;-60
2021/12/10 03:13:56;;;;;;;3.37;1.40;;;5.70;99.90;;;;;;5055351;28;20202;-60
2021/12/10 03:16:22;;;;;;;5.68;1.42;;;5.60;99.90;;;;;;5055872;28;20190;-60
2021/12/10 03:18:48;;;;;;;3.10;1.20;;;5.60;99.90;;;;;;5056228;28;20261;-60
2021/12/10 03:21:14;;;;;;;3.90;1.00;;;5.60;99.90;;;;;;5054564;28;20759;-60
2021/12/10 03:23:44;;;;;;;3.30;1.50;;;5.60;99.90;;;;;;5055509;28;20209;-60
2021/12/10 03:26:13;;;;;;;4.23;1.47;;;5.70;99.90;;;;;;5055515;28;20517;-60
2021/12/10 03:28:42;;;;;;;3.20;1.20;;;5.70;99.90;;;;;;5054680;28;20175;-60
2021/12/10 03:31:10;;;;;;;4.30;1.33;;;5.60;99.90;;;;;;5037421;28;20270;-60
2021/12/10 03:33:37;;;;;;;3.20;1.20;;;5.60;99.90;;;;;;5056057;28;20210;-60
2021/12/10 03:36:03;;;;;;;2.70;1.10;;;5.60;99.90;;;;;;5055525;28;20611;-60
2021/12/10 03:38:30;;;;;;;1.95;0.90;;;5.50;99.90;;;;;;5054876;28;20597;-60
2021/12/10 03:40:59;;;;;;;1.80;1.17;;;5.40;99.90;;;;;;5054869;28;20237;-60
2021/12/10 03:43:26;;;;;;;4.33;1.20;;;5.50;99.90;;;;;;5054768;28;20277;-60
2021/12/10 03:45:55;;;;;;;3.47;1.30;;;5.40;99.90;;;;;;5055597;28;20329;-60
2021/12/10 03:48:25;;;;;;;3.07;1.23;;;5.50;99.90;;;;;;5055577;28;20250;-60
2021/12/10 03:50:52;;;;;;;2.37;1.10;;;5.40;99.90;;;;;;5053739;28;20275;-60
2021/12/10 03:53:18;;;;;;;1.80;1.17;;;5.50;99.90;;;;;;5055365;28;20179;-60
2021/12/10 03:55:45;;;;;;;2.53;1.20;;;5.30;99.90;;;;;;5055403;28;20179;-60
2021/12/10 03:58:11;;;;;;;1.00;0.70;;;5.40;99.90;;;;;;5055439;28;20184;-60
2021/12/10 04:00:41;;;;;;;1.70;0.98;;;5.30;99.90;;;;;;5054670;28;20202;-60
2021/12/10 04:03:07;;;;;;;1.55;1.10;;;5.30;99.90;;;;;;5055583;28;20264;-60
2021/12/10 04:05:33;;;;;;;1.63;1.10;;;5.20;99.90;;;;;;5037064;28;20179;-60
2021/12/10 04:07:59;;;;;;;2.33;1.05;;;5.30;99.90;;;;;;5055257;28;20691;-60
2021/12/10 04:10:26;;;;;;;1.73;0.90;;;5.20;99.90;;;;;;5054906;28;20214;-60
2021/12/10 04:12:52;;;;;;;3.17;1.13;;;5.40;99.90;;;;;;5055417;28;20175;-60
2021/12/10 04:15:22;;;;;;;2.03;1.10;;;5.40;99.90;;;;;;5054581;28;20523;-60
2021/12/10 04:17:53;;;;;;;2.50;0.87;;;5.20;99.90;;;;;;5055237;28;20177;-60
2021/12/10 04:20:21;;;;;;;2.40;1.10;;;5.20;99.90;;;;;;5054667;28;20166;-60
2021/12/10 04:22:48;;;;;;;2.43;0.90;;;5.20;99.90;;;;;;5055267;28;20175;-60
2021/12/10 04:25:18;;;;;;;2.87;0.90;;;5.10;99.90;;;;;;5053437;28;20204;-60
2021/12/10 04:27:46;;;;;;;4.80;1.10;;;5.20;99.90;;;;;;5055189;28;20262;-60
2021/12/10 04:30:13;;;;;;;2.67;1.20;;;5.20;99.90;;;;;;5054195;28;20186;-60
2021/12/10 04:32:40;;;;;;;1.87;0.90;;;5.20;99.90;;;;;;5055035;28;20638;-60
2021/12/10 04:35:08;;;;;;;2.10;0.83;;;5.20;99.90;;;;;;5054394;28;20171;-60
2021/12/10 04:37:33;;;;;;;1.87;0.90;;;5.30;99.90;;;;;;5054476;28;20717;-60
2021/12/10 04:40:03;;;;;;;2.45;1.02;;;5.20;99.90;;;;;;5054688;28;20206;-60
2021/12/10 04:42:28;;;;;;;2.10;0.93;;;5.20;99.90;;;;;;5054856;28;20182;-60
2021/12/10 04:44:57;;;;;;;2.47;0.80;;;5.10;99.90;;;;;;5054528;28;20525;-60
2021/12/10 04:47:23;;;;;;;2.33;1.20;;;5.10;99.90;;;;;;5054086;28;20190;-60
2021/12/10 04:49:49;;;;;;;2.50;0.90;;;5.10;99.90;;;;;;5053484;28;20296;-60
2021/12/10 04:52:15;;;;;;;2.83;1.00;;;5.10;99.90;;;;;;5054005;28;20710;-60
2021/12/10 04:54:41;;;;;;;1.17;0.80;;;5.10;99.90;;;;;;5054378;28;20178;-60
2021/12/10 04:57:08;;;;;;;2.33;0.98;;;4.90;99.90;;;;;;5054003;28;20182;-60
2021/12/10 04:59:36;;;;;;;1.93;0.90;;;5.00;99.90;;;;;;5036731;28;20545;-60
2021/12/10 05:02:06;;;;;;;1.37;0.83;;;5.00;99.90;;;;;;5054059;28;20267;-60
2021/12/10 05:04:32;;;;;;;1.50;1.00;;;5.10;99.90;;;;;;5053206;28;20619;-60
2021/12/10 05:06:59;;;;;;;1.40;0.83;;;4.90;99.90;;;;;;5053270;28;20206;-60
2021/12/10 05:09:25;;;;;;;2.30;1.20;;;5.00;99.90;;;;;;5054263;28;20228;-60
2021/12/10 05:11:52;;;;;;;2.40;0.93;;;5.00;99.90;;;;;;5053681;28;20210;-60
2021/12/10 05:14:19;;;;;;;1.73;0.90;;;4.90;99.90;;;;;;5054269;28;20172;-60
2021/12/10 05:16:47;;;;;;;1.10;0.87;;;4.90;99.90;;;;;;5053361;28;20196;-60
2021/12/10 05:19:15;;;;;;;1.30;0.87;;;5.00;99.90;;;;;;5052703;28;20183;-60
2021/12/10 05:21:43;;;;;;;1.00;0.90;;;4.90;99.90;;;;;;5035619;28;20368;-60
2021/12/10 05:24:09;;;;;;;2.77;1.10;;;4.80;99.90;;;;;;5052824;28;20546;-60
2021/12/10 05:26:35;;;;;;;1.33;0.80;;;4.90;99.90;;;;;;5051693;28;20193;-60
2021/12/10 05:29:03;;;;;;;2.20;0.93;;;4.90;99.90;;;;;;5053690;28;20559;-60
2021/12/10 05:31:29;;;;;;;1.40;0.90;;;5.00;99.90;;;;;;5053350;28;20185;-60
2021/12/10 05:33:55;;;;;;;1.47;1.00;;;5.00;99.90;;;;;;5053688;28;20182;-60
2021/12/10 05:36:21;;;;;;;2.13;0.65;;;5.10;99.90;;;;;;5051375;28;20228;-60
2021/12/10 05:38:47;;;;;;;1.87;0.90;;;4.90;99.90;;;;;;5053572;28;20651;-60
2021/12/10 05:41:13;;;;;;;1.57;0.90;;;5.00;99.90;;;;;;5051870;28;20203;-60
2021/12/10 05:43:41;;;;;;;2.07;0.90;;;4.90;99.90;;;;;;5052358;28;20178;-60
2021/12/10 05:46:08;;;;;;;2.03;1.23;;;4.90;99.90;;;;;;5051553;28;20609;-60
2021/12/10 05:48:33;;;;;;;2.42;1.40;;;4.90;99.90;;;;;;5053676;28;20265;-60
2021/12/10 05:50:59;;;;;;;3.25;1.20;;;4.90;99.90;;;;;;5052982;28;20262;-60
2021/12/10 05:53:26;;;;;;;33.73;17.93;;;4.90;99.90;;;;;;5035599;28;20210;-60
2021/12/10 05:55:51;;;;;;;1.77;1.20;;;4.80;99.90;;;;;;5035078;28;20185;-59
2021/12/10 05:58:17;;;;;;;1.37;0.60;;;4.90;99.90;;;;;;5052114;28;20185;-61
2021/12/10 06:00:53;;;;;;;1.70;1.00;;;4.80;99.90;;;;;;5051616;28;20202;-59
2021/12/10 06:03:19;;;;;;;1.03;0.70;;;4.90;99.90;;;;;;5053240;28;20162;-60
2021/12/10 06:05:46;;;;;;;1.67;1.20;;;4.90;99.90;;;;;;5051128;28;20179;-60
2021/12/10 06:08:13;;;;;;;2.20;0.73;;;4.90;99.90;;;;;;5051879;28;20224;-60
2021/12/10 06:10:40;;;;;;;2.90;1.67;;;5.00;99.90;;;;;;5052461;28;20265;-60
2021/12/10 06:13:06;;;;;;;0.60;0.60;;;5.00;99.90;;;;;;5053394;28;20178;-60
2021/12/10 06:15:32;;;;;;;0.90;0.63;;;5.00;99.90;;;;;;5052787;28;20659;-60
2021/12/10 06:17:58;;;;;;;1.67;0.70;;;5.00;99.90;;;;;;5053078;28;20175;-60
2021/12/10 06:20:28;;;;;;;1.10;0.70;;;4.90;99.90;;;;;;5052582;28;20185;-59
2021/12/10 06:22:55;;;;;;;1.50;1.00;;;4.90;99.90;;;;;;5051756;28;20258;-60
2021/12/10 06:25:21;;;;;;;2.33;1.67;;;4.90;99.90;;;;;;5052623;28;20198;-61
2021/12/10 06:27:46;;;;;;;0.90;0.80;;;4.90;99.90;;;;;;5052301;28;20182;-59
2021/12/10 06:30:17;;;;;;;1.07;0.90;;;4.80;99.90;;;;;;5056542;28;20189;-59
2021/12/10 06:32:45;;;;;;;1.40;0.60;;;4.80;99.90;;;;;;5056359;28;20600;-59
2021/12/10 06:35:16;;;;;;;1.75;0.75;;;4.80;99.90;;;;;;5056323;28;20187;-59
2021/12/10 06:37:43;;;;;;;2.90;0.90;;;4.70;99.90;;;;;;5057162;28;20513;-59
2021/12/10 06:40:12;;;;;;;1.17;0.90;;;4.70;99.90;;;;;;5056437;28;20279;-59
2021/12/10 06:42:38;;;;;;;0.77;0.70;;;4.70;99.90;;;;;;5057014;28;20244;-59
2021/12/10 06:45:08;;;;;;;1.60;0.80;;;4.70;99.90;;;;;;5056184;28;20186;-58
2021/12/10 06:47:34;;;;;;;0.95;0.80;;;4.70;99.90;;;;;;5057175;28;20170;-59
2021/12/10 06:50:00;;;;;;;0.98;0.82;;;4.70;99.90;;;;;;5056130;28;20240;-59
2021/12/10 06:52:25;;;;;;;1.30;1.00;;;4.70;99.90;;;;;;5056913;28;20265;-59
2021/12/10 06:54:51;;;;;;;1.15;0.70;;;4.70;99.90;;;;;;5055728;28;20170;-59
2021/12/10 06:57:17;;;;;;;2.03;0.80;;;4.70;99.90;;;;;;5056031;28;20179;-59
2021/12/10 06:59:43;;;;;;;1.83;0.77;;;4.80;99.90;;;;;;5056801;28;20182;-59
2021/12/10 07:02:11;;;;;;;1.87;0.80;;;4.70;99.90;;;;;;5056103;28;20207;-59
2021/12/10 07:04:41;;;;;;;0.73;0.73;;;4.70;99.90;;;;;;5056776;28;20232;-59
2021/12/10 07:07:08;;;;;;;0.80;0.70;;;4.80;99.90;;;;;;5055824;28;20560;-59
2021/12/10 07:09:34;;;;;;;1.57;0.60;;;4.70;99.90;;;;;;5056635;28;20528;-59
2021/12/10 07:12:00;;;;;;;1.30;0.83;;;4.70;99.90;;;;;;5055994;28;20228;-59
2021/12/10 07:14:26;;;;;;;1.17;0.80;;;4.70;99.90;;;;;;5055077;28;20179;-59
2021/12/10 07:16:52;;;;;;;0.73;0.70;;;4.70;99.90;;;;;;5037923;28;20230;-59
2021/12/10 07:19:18;;;;;;;1.30;0.87;;;4.70;99.90;;;;;;5056457;28;20178;-59
2021/12/10 07:21:44;;;;;;;1.20;0.97;;;4.70;99.90;;;;;;5055688;28;20202;-59
2021/12/10 07:24:14;;;;;;;2.13;1.10;;;4.70;99.90;;;;;;5054976;28;20187;-59
2021/12/10 07:26:40;;;;;;;1.63;0.97;;;4.70;99.90;;;;;;5055673;28;20185;-59
2021/12/10 07:29:07;;;;;;;2.40;1.13;;;4.70;99.90;;;;;;5055173;28;20186;-59
2021/12/10 07:31:34;;;;;;;1.27;1.13;;;4.70;99.90;;;;;;5055334;28;20640;-59
2021/12/10 07:34:01;;;;;;;2.33;1.87;;;4.60;99.90;;;;;;5055821;28;20174;-59
2021/12/10 07:36:27;;;;;;;1.80;1.30;;;4.70;99.90;;;;;;5055021;28;20694;-59
2021/12/10 07:38:53;;;;;;;2.97;1.58;;;4.70;99.90;;;;;;5055814;28;20175;-59
2021/12/10 07:41:19;;;;;;;2.30;1.88;;;4.80;99.90;;;;;;5037540;28;20238;-59
2021/12/10 07:43:45;;;;;;;2.63;1.40;;;4.80;99.90;;;;;;5054601;28;20178;-59
2021/12/10 07:46:12;;;;;;;2.75;2.22;;;4.70;99.90;;;;;;5055358;28;20186;-59
2021/12/10 07:48:39;;;;;;;1.92;1.40;;;4.70;99.90;;;;;;5055867;28;20183;-59
2021/12/10 07:51:26;;;;;;;2.90;1.70;;;4.60;99.90;;;;;;5055319;28;20232;-59
2021/12/10 07:53:55;;;;;;;4.10;1.30;;;4.70;99.90;;;;;;5055540;28;20179;-59
2021/12/10 07:56:21;;;;;;;1.70;1.60;;;4.70;99.90;;;;;;5053818;28;20225;-59
2021/12/10 07:58:47;;;;;;;1.40;1.30;;;4.60;99.90;;;;;;5054481;28;20209;-59
2021/12/10 08:01:18;;;;;;;2.40;2.03;;;4.50;99.90;;;;;;5054342;28;20734;-59
2021/12/10 08:03:45;;;;;;;3.37;1.83;;;4.60;99.90;;;;;;5055611;28;20162;-59
2021/12/10 08:06:11;;;;;;;1.23;1.00;;;4.60;99.90;;;;;;5053722;28;20179;-59
2021/12/10 08:08:37;;;;;;;1.70;1.30;;;4.50;99.90;;;;;;5055293;28;20647;-59
2021/12/10 08:11:04;;;;;;;1.80;1.30;;;4.50;99.90;;;;;;5054643;28;20629;-59
2021/12/10 08:13:29;;;;;;;1.50;1.40;;;4.50;99.90;;;;;;5055578;28;20186;-59
2021/12/10 08:15:55;;;;;;;2.20;2.00;;;4.60;99.90;;;;;;5054769;28;20640;-59
2021/12/10 08:18:21;;;;;;;1.73;1.53;;;4.60;99.90;;;;;;5054515;28;20178;-59
2021/12/10 08:20:47;;;;;;;1.73;1.47;;;4.60;99.90;;;;;;5053424;28;20659;-59
2021/12/10 08:23:13;;;;;;;1.67;1.57;;;4.60;99.90;;;;;;5055057;28;20731;-59
2021/12/10 08:25:40;;;;;;;2.00;1.87;;;4.60;99.90;;;;;;5054277;28;20224;-59
2021/12/10 08:28:07;;;;;;;2.83;1.63;;;4.50;99.90;;;;;;5054033;28;20182;-59
2021/12/10 08:30:36;;;;;;;2.40;1.60;;;4.50;99.90;;;;;;5053952;28;20631;-59
2021/12/10 08:33:03;;;;;;;2.67;1.60;;;4.50;99.90;;;;;;5055343;28;20184;-59
2021/12/10 08:35:31;;;;;;;1.57;1.40;;;4.60;99.90;;;;;;5054417;28;20178;-59
2021/12/10 08:38:00;;;;;;;1.80;1.70;;;4.50;99.90;;;;;;5054760;28;20623;-59
2021/12/10 08:40:34;;;;;;;1.70;1.40;;;4.50;99.90;;;;;;5053863;28;20248;-59
2021/12/10 08:43:01;;;;;;;2.37;1.57;;;4.40;99.90;;;;;;5054821;28;20170;-59
2021/12/10 08:45:27;;;;;;;1.53;1.43;;;4.40;99.90;;;;;;5053766;28;20644;-59
2021/12/10 08:47:54;;;;;;;1.50;1.40;;;4.40;99.90;;;;;;5053634;28;20699;-59
2021/12/10 08:50:23;;;;;;;1.73;1.50;;;4.40;99.90;;;;;;5053351;28;20671;-59
2021/12/10 08:53:00;;;;;;;2.60;1.80;;;4.50;99.90;;;;;;5054368;28;20273;-59
2021/12/10 08:55:27;;;;;;;2.33;1.60;;;4.30;99.90;;;;;;5052934;28;20174;-59
2021/12/10 08:57:54;;;;;;;1.75;1.50;;;4.30;99.90;;;;;;5054886;28;20182;-59
2021/12/10 09:00:20;;;;;;;1.90;1.30;;;4.30;99.90;;;;;;5053540;28;20179;-60
2021/12/10 09:02:51;;;;;;;1.60;1.50;;;4.40;99.90;;;;;;5053375;28;20509;-59
2021/12/10 09:05:17;;;;;;;1.80;1.70;;;4.40;99.90;;;;;;5053508;28;20180;-59
2021/12/10 09:07:45;;;;;;;2.38;1.52;;;4.30;99.90;;;;;;5054437;28;20528;-59
2021/12/10 09:10:14;;;;;;;2.03;1.70;;;4.40;99.90;;;;;;5052189;28;20182;-60
2021/12/10 09:12:40;;;;;;;3.00;1.83;;;4.60;99.90;;;;;;5053790;28;20262;-60
2021/12/10 09:15:10;;;;;;;2.40;1.80;;;4.60;99.90;;;;;;5052202;28;20186;-60
2021/12/10 09:17:38;;;;;;;1.80;1.60;;;4.50;99.90;;;;;;5054604;28;20179;-60
2021/12/10 09:20:10;;;;;;;1.50;1.40;;;4.50;99.90;;;;;;5052418;28;20667;-60
2021/12/10 09:22:35;;;;;;;1.30;1.20;;;4.50;99.90;;;;;;5053606;28;20556;-59
2021/12/10 09:25:02;;;;;;;1.83;1.30;;;4.40;99.90;;;;;;5053415;28;20183;-59
2021/12/10 09:27:28;;;;;;;1.67;1.13;;;4.50;99.90;;;;;;5052676;28;20183;-59
2021/12/10 09:29:55;;;;;;;1.67;1.50;;;4.50;99.90;;;;;;5054068;28;20174;-59
2021/12/10 09:32:24;;;;;;;1.60;1.33;;;4.40;99.90;;;;;;5053297;28;20673;-60
2021/12/10 09:34:52;;;;;;;2.00;1.60;;;4.40;99.90;;;;;;5053604;28;20243;-59
2021/12/10 09:37:21;;;;;;;3.17;1.53;;;4.40;99.90;;;;;;5052054;28;20179;-59
2021/12/10 09:39:49;;;;;;;2.00;1.50;;;4.40;99.90;;;;;;5053656;28;20669;-60
2021/12/10 09:42:17;;;;;;;2.00;1.80;;;4.30;99.90;;;;;;5052992;28;20301;-59
2021/12/10 09:44:42;;;;;;;2.80;1.80;;;4.30;99.90;;;;;;5053638;28;20175;-60
2021/12/10 09:47:14;;;;;;;2.47;1.80;;;4.40;99.90;;;;;;5052065;28;20246;-60
2021/12/10 09:49:42;;;;;;;2.30;1.90;;;4.30;99.90;;;;;;5053689;28;20177;-60
2021/12/10 09:52:08;;;;;;;2.20;2.00;;;4.30;99.90;;;;;;5035440;28;20182;-60
2021/12/10 09:54:36;;;;;;;1.97;1.67;;;4.40;99.90;;;;;;5053754;28;20179;-60
2021/12/10 09:57:23;;;;;;;2.00;1.80;;;4.40;99.90;;;;;;5052342;28;20541;-60
2021/12/10 09:59:51;;;;;;;3.00;2.03;;;4.40;99.90;;;;;;5053603;28;20167;-60
2021/12/10 10:02:18;;;;;;;3.17;2.30;;;4.30;99.90;;;;;;5052485;28;20202;-60
2021/12/10 10:04:49;;;;;;;3.03;1.80;;;4.40;99.90;;;;;;5053669;28;20178;-59
2021/12/10 10:07:18;;;;;;;2.20;1.60;;;4.40;99.90;;;;;;5052558;28;20212;-60
2021/12/10 10:09:49;;;;;;;1.80;1.50;;;4.40;99.90;;;;;;5053429;28;20208;-60
2021/12/10 10:12:21;;;;;;;1.50;1.40;;;4.30;99.90;;;;;;5052840;28;20171;-60
2021/12/10 10:14:48;;;;;;;1.97;1.70;;;4.30;99.90;;;;;;5036053;28;20170;-59
2021/12/10 10:17:16;;;;;;;2.67;1.73;;;4.30;99.90;;;;;;5051420;28;20586;-60
2021/12/10 10:19:42;;;;;;;2.13;1.60;;;4.30;99.90;;;;;;5053038;28;20186;-60
2021/12/10 10:22:13;;;;;;;2.60;1.80;;;4.40;99.90;;;;;;5052639;28;20722;-60
2021/12/10 10:24:39;;;;;;;1.80;1.70;;;4.30;99.90;;;;;;5052221;28;20205;-60
2021/12/10 10:27:12;;;;;;;1.70;1.60;;;4.20;99.90;;;;;;5052606;28;20632;-60
2021/12/10 10:29:47;;;;;;;1.90;1.70;;;4.30;99.90;;;;;;5053378;28;20159;-60
2021/12/10 10:32:15;;;;;;;1.80;1.70;;;4.20;99.90;;;;;;5052606;28;20175;-60
2021/12/10 10:35:01;;;;;;;2.60;1.70;;;4.30;99.90;;;;;;5053299;28;20178;-59
2021/12/10 10:37:28;;;;;;;1.93;1.80;;;4.30;99.90;;;;;;5053109;28;20162;-60
2021/12/10 10:39:54;;;;;;;2.97;1.90;;;4.30;99.90;;;;;;5053152;28;20690;-59
2021/12/10 10:42:25;;;;;;;2.20;2.00;;;4.30;99.90;;;;;;5052253;28;20210;-59
2021/12/10 10:44:53;;;;;;;3.10;2.20;;;4.30;99.90;;;;;;5053084;28;20171;-60
2021/12/10 10:47:23;;;;;;;2.95;2.50;;;4.20;99.90;;;;;;5052164;28;20175;-60
2021/12/10 10:49:56;;;;;;;2.40;2.20;;;4.20;99.90;;;;;;5051675;28;20174;-59
2021/12/10 10:52:28;;;;;;;2.15;1.95;;;4.30;99.90;;;;;;5052369;28;20688;-60
2021/12/10 10:55:10;;;;;;;1.80;1.70;;;4.30;99.90;;;;;;5052981;28;20162;-60
2021/12/10 10:57:38;;;;;;;2.07;1.90;;;4.30;99.90;;;;;;5053257;28;20159;-60
2021/12/10 11:00:18;;;;;;;2.53;1.90;;;4.30;99.90;;;;;;5051059;28;20206;-60
2021/12/10 11:02:52;;;;;;;2.03;1.83;;;4.40;99.90;;;;;;5052848;28;20216;-60
2021/12/10 11:05:22;;;;;;;2.10;1.60;;;4.40;99.90;;;;;;5052353;28;20696;-59
2021/12/10 11:07:51;;;;;;;1.30;1.20;;;4.40;99.90;;;;;;5052949;28;20175;-60
2021/12/10 11:10:37;;;;;;;2.03;1.80;;;4.40;99.90;;;;;;5051924;28;20277;-60
2021/12/10 11:13:21;;;;;;;1.93;1.70;;;4.20;99.90;;;;;;5052880;28;20158;-60
2021/12/10 11:16:01;;;;;;;1.93;1.70;;;4.30;99.90;;;;;;5055237;28;20198;-59
2021/12/10 11:18:27;;;;;;;2.10;1.90;;;4.10;99.90;;;;;;5056562;28;20259;-59
2021/12/10 11:20:54;;;;;;;2.20;2.00;;;4.20;99.90;;;;;;5055508;28;20206;-59
2021/12/10 11:23:26;;;;;;;2.90;1.83;;;4.30;99.90;;;;;;5055100;28;20258;-59
2021/12/10 11:25:55;;;;;;;2.17;1.73;;;4.30;99.90;;;;;;5054522;28;20174;-59
2021/12/10 11:28:30;;;;;;;2.27;2.00;;;4.30;99.90;;;;;;5055074;28;20270;-59
2021/12/10 11:31:17;;;;;;;2.10;1.90;;;4.40;99.90;;;;;;5054232;28;20174;-60
2021/12/10 11:33:51;;;;;;;2.47;2.28;;;4.40;99.90;;;;;;5056295;28;20177;-59
2021/12/10 11:36:23;;;;;;;2.43;2.23;;;4.40;99.90;;;;;;5055732;28;20205;-59
2021/12/10 11:38:55;;;;;;;2.53;2.37;;;4.40;99.90;;;;;;5056205;28;20604;-60
2021/12/10 11:41:26;;;;;;;2.50;2.30;;;4.40;99.90;;;;;;5055267;28;20554;-59
2021/12/10 11:44:43;;;;;;;2.30;2.10;;;4.40;99.90;;;;;;5055886;28;20174;-59
2021/12/10 11:50:00;;;;;;;2.73;2.53;;;4.40;99.90;;;;;;5050651;28;20202;-60
2021/12/10 11:52:28;;;;;;;3.10;2.90;;;4.40;99.90;;;;;;5055706;28;20183;-60
2021/12/10 11:54:55;;;;;;;3.30;3.10;;;4.40;99.90;;;;;;5054565;28;20183;-60
2021/12/10 11:57:31;;;;;;;4.03;3.73;;;4.40;99.90;;;;;;5055132;28;20209;-59
2021/12/10 12:00:13;;;;;;;4.10;3.80;;;4.40;99.90;;;;;;5055773;28;20167;-59
2021/12/10 12:02:55;;;;;;;4.82;4.35;;;4.40;99.90;;;;;;5055675;28;20222;-59
2021/12/10 12:05:25;;;;;;;5.00;3.50;;;4.50;99.90;;;;;;5055057;28;20197;-60
2021/12/10 12:07:56;;;;;;;3.33;3.13;;;4.50;99.90;;;;;;5055647;28;20168;-60
2021/12/10 12:10:30;;;;;;;3.57;3.27;;;4.50;99.90;;;;;;5054852;28;20167;-59
2021/12/10 12:13:23;;;;;;;4.10;3.70;;;4.50;99.90;;;;;;5055147;28;20595;-60
2021/12/10 12:15:54;;;;;;;4.63;4.23;;;4.40;99.90;;;;;;5053234;28;20206;-59
2021/12/10 12:18:39;;;;;;;4.30;3.90;;;4.50;99.90;;;;;;5055431;28;20608;-59
2021/12/10 12:27:12;;;;;;;4.47;3.90;;;4.40;99.90;;;;;;5054261;28;20224;-60
2021/12/10 12:30:02;;;;;;;4.87;4.47;;;4.40;99.90;;;;;;5055326;28;20237;-59
2021/12/10 12:32:37;;;;;;;4.87;4.47;;;4.40;99.90;;;;;;5053597;28;20186;-59
2021/12/10 12:35:18;;;;;;;4.40;4.10;;;4.40;99.90;;;;;;5054563;28;20208;-60
2021/12/10 12:37:44;;;;;;;5.07;4.63;;;4.40;99.90;;;;;;5055326;28;20241;-60
2021/12/10 12:40:11;;;;;;;4.47;4.17;;;4.50;99.90;;;;;;5054443;28;20220;-59
2021/12/10 12:42:47;;;;;;;4.80;4.10;;;4.50;99.90;;;;;;5053453;28;20210;-59
2021/12/10 12:45:23;;;;;;;5.07;4.57;;;4.50;99.90;;;;;;5054071;28;20178;-59
2021/12/10 12:47:53;;;;;;;4.90;4.50;;;4.40;99.90;;;;;;5054952;28;20257;-59
2021/12/10 12:50:28;;;;;;;4.63;4.30;;;4.40;99.90;;;;;;5054245;28;20179;-60
2021/12/10 12:53:00;;;;;;;5.18;4.35;;;4.40;99.90;;;;;;5054579;28;20169;-59
2021/12/10 12:55:43;;;;;;;4.80;4.40;;;4.50;99.90;;;;;;5053654;28;20616;-60
2021/12/10 12:58:23;;;;;;;5.07;4.68;;;4.40;99.90;;;;;;5054587;28;20181;-60
2021/12/10 13:00:51;;;;;;;6.55;5.95;;;4.40;99.90;;;;;;5053592;28;20281;-60
2021/12/10 13:03:37;;;;;;;7.73;7.03;;;4.40;99.90;;;;;;5054468;28;20187;-60
2021/12/10 13:06:17;;;;;;;8.00;7.30;;;4.40;99.90;;;;;;5053811;28;20167;-59
2021/12/10 13:09:02;;;;;;;8.37;7.53;;;4.40;99.90;;;;;;5054440;28;20158;-59
2021/12/10 13:11:46;;;;;;;8.90;7.80;;;4.40;99.90;;;;;;5053486;28;20163;-59
2021/12/10 13:14:16;;;;;;;10.10;9.10;;;4.30;99.90;;;;;;5054343;28;20167;-60
2021/12/10 13:16:51;;;;;;;10.37;9.27;;;4.40;99.90;;;;;;5053485;28;20272;-60
2021/12/10 13:19:23;;;;;;;11.17;10.07;;;4.30;99.90;;;;;;5054633;28;20182;-60
2021/12/10 13:22:04;;;;;;;10.70;9.53;;;4.40;99.90;;;;;;5053134;28;20535;-60
2021/12/10 13:24:31;;;;;;;10.20;9.27;;;4.30;99.90;;;;;;5052942;28;20202;-59
2021/12/10 13:26:59;;;;;;;8.77;7.87;;;4.40;99.90;;;;;;5051929;28;20624;-59
2021/12/10 13:29:26;;;;;;;8.18;7.38;;;4.40;99.90;;;;;;5054006;28;20189;-59
2021/12/10 13:31:52;;;;;;;9.13;8.23;;;4.30;99.90;;;;;;5052837;28;20228;-59